sensor_id;sensor_type;location;lat;lon;timestamp;P1;durP1;ratioP1;P2;durP2;ratioP2
5040;SDS011;2539;52.568;13.364;2022-08-16T00:01:47;25.10;;;22.67;;
5040;SDS011;2539;52.568;13.364;2022-08-16T00:04:14;25.50;;;23.20;;
5040;SDS011;2539;52.568;13.364;2022-08-16T00:06:42;26.03;;;23.43;;
5040;SDS011;2539;52.568;13.364;2022-08-16T00:09:09;29.50;;;22.90;;
5040;SDS011;2539;52.568;13.364;2022-08-16T00:11:35;26.40;;;23.77;;
5040;SDS011;2539;52.568;13.364;2022-08-16T00:14:05;26.67;;;24.10;;
5040;SDS011;2539;52.568;13.364;2022-08-16T00:16:34;27.73;;;24.83;;
5040;SDS011;2539;52.568;13.364;2022-08-16T00:19:00;28.47;;;25.50;;
5040;SDS011;2539;52.568;13.364;2022-08-16T00:21:27;26.80;;;24.00;;
5040;SDS011;2539;52.568;13.364;2022-08-16T00:23:53;25.87;;;23.37;;
5040;SDS011;2539;52.568;13.364;2022-08-16T00:26:19;29.47;;;24.50;;
5040;SDS011;2539;52.568;13.364;2022-08-16T00:28:45;26.43;;;23.67;;
5040;SDS011;2539;52.568;13.364;2022-08-16T00:31:11;29.30;;;26.30;;
5040;SDS011;2539;52.568;13.364;2022-08-16T00:33:37;29.03;;;25.93;;
5040;SDS011;2539;52.568;13.364;2022-08-16T00:36:03;28.02;;;25.08;;
5040;SDS011;2539;52.568;13.364;2022-08-16T00:38:30;29.23;;;26.03;;
5040;SDS011;2539;52.568;13.364;2022-08-16T00:40:56;29.97;;;24.60;;
5040;SDS011;2539;52.568;13.364;2022-08-16T00:43:27;22.30;;;20.10;;
5040;SDS011;2539;52.568;13.364;2022-08-16T00:46:00;23.37;;;21.00;;
5040;SDS011;2539;52.568;13.364;2022-08-16T00:48:34;22.10;;;19.93;;
5040;SDS011;2539;52.568;13.364;2022-08-16T00:51:01;19.90;;;17.90;;
5040;SDS011;2539;52.568;13.364;2022-08-16T00:53:28;18.77;;;17.08;;
5040;SDS011;2539;52.568;13.364;2022-08-16T00:55:56;17.97;;;16.20;;
5040;SDS011;2539;52.568;13.364;2022-08-16T00:58:26;18.20;;;16.40;;
5040;SDS011;2539;52.568;13.364;2022-08-16T01:00:55;17.33;;;15.43;;
5040;SDS011;2539;52.568;13.364;2022-08-16T01:03:22;17.83;;;16.00;;
5040;SDS011;2539;52.568;13.364;2022-08-16T01:05:50;18.10;;;16.50;;
5040;SDS011;2539;52.568;13.364;2022-08-16T01:08:18;17.47;;;15.77;;
5040;SDS011;2539;52.568;13.364;2022-08-16T01:10:46;17.90;;;15.87;;
5040;SDS011;2539;52.568;13.364;2022-08-16T01:13:14;18.63;;;15.97;;
5040;SDS011;2539;52.568;13.364;2022-08-16T01:15:45;17.17;;;15.40;;
5040;SDS011;2539;52.568;13.364;2022-08-16T01:18:16;16.93;;;15.33;;
5040;SDS011;2539;52.568;13.364;2022-08-16T01:20:50;16.67;;;15.10;;
5040;SDS011;2539;52.568;13.364;2022-08-16T01:23:35;16.30;;;14.90;;
5040;SDS011;2539;52.568;13.364;2022-08-16T01:26:15;17.00;;;15.50;;
5040;SDS011;2539;52.568;13.364;2022-08-16T01:28:42;16.70;;;15.10;;
5040;SDS011;2539;52.568;13.364;2022-08-16T01:31:09;17.87;;;16.23;;
5040;SDS011;2539;52.568;13.364;2022-08-16T01:33:37;18.03;;;16.33;;
5040;SDS011;2539;52.568;13.364;2022-08-16T01:36:07;18.37;;;16.37;;
5040;SDS011;2539;52.568;13.364;2022-08-16T01:38:39;17.23;;;15.63;;
5040;SDS011;2539;52.568;13.364;2022-08-16T01:41:15;17.43;;;15.83;;
5040;SDS011;2539;52.568;13.364;2022-08-16T01:43:44;18.77;;;16.87;;
5040;SDS011;2539;52.568;13.364;2022-08-16T01:49:00;18.23;;;16.37;;
5040;SDS011;2539;52.568;13.364;2022-08-16T01:51:30;17.83;;;16.03;;
5040;SDS011;2539;52.568;13.364;2022-08-16T01:53:57;18.30;;;16.57;;
5040;SDS011;2539;52.568;13.364;2022-08-16T01:56:24;18.20;;;16.60;;
5040;SDS011;2539;52.568;13.364;2022-08-16T01:58:51;17.63;;;16.03;;
5040;SDS011;2539;52.568;13.364;2022-08-16T02:01:19;17.60;;;16.00;;
5040;SDS011;2539;52.568;13.364;2022-08-16T02:03:45;19.90;;;16.80;;
5040;SDS011;2539;52.568;13.364;2022-08-16T02:06:11;19.33;;;17.20;;
5040;SDS011;2539;52.568;13.364;2022-08-16T02:08:37;19.00;;;17.30;;
5040;SDS011;2539;52.568;13.364;2022-08-16T02:11:04;19.40;;;17.53;;
5040;SDS011;2539;52.568;13.364;2022-08-16T02:13:36;17.48;;;15.98;;
5040;SDS011;2539;52.568;13.364;2022-08-16T02:16:06;18.27;;;16.67;;
5040;SDS011;2539;52.568;13.364;2022-08-16T02:18:33;18.97;;;17.17;;
5040;SDS011;2539;52.568;13.364;2022-08-16T02:20:59;19.40;;;17.70;;
5040;SDS011;2539;52.568;13.364;2022-08-16T02:23:26;18.67;;;17.10;;
5040;SDS011;2539;52.568;13.364;2022-08-16T02:25:52;19.17;;;17.37;;
5040;SDS011;2539;52.568;13.364;2022-08-16T02:28:19;18.67;;;16.93;;
5040;SDS011;2539;52.568;13.364;2022-08-16T02:30:47;18.43;;;16.63;;
5040;SDS011;2539;52.568;13.364;2022-08-16T02:33:13;19.87;;;18.13;;
5040;SDS011;2539;52.568;13.364;2022-08-16T02:35:39;19.87;;;17.97;;
5040;SDS011;2539;52.568;13.364;2022-08-16T02:38:05;20.93;;;18.23;;
5040;SDS011;2539;52.568;13.364;2022-08-16T02:40:32;19.53;;;17.73;;
5040;SDS011;2539;52.568;13.364;2022-08-16T02:42:58;20.37;;;18.60;;
5040;SDS011;2539;52.568;13.364;2022-08-16T02:45:25;20.07;;;18.13;;
5040;SDS011;2539;52.568;13.364;2022-08-16T02:47:52;21.23;;;19.40;;
5040;SDS011;2539;52.568;13.364;2022-08-16T02:50:19;20.10;;;18.10;;
5040;SDS011;2539;52.568;13.364;2022-08-16T02:52:46;20.90;;;18.93;;
5040;SDS011;2539;52.568;13.364;2022-08-16T02:55:12;20.77;;;18.97;;
5040;SDS011;2539;52.568;13.364;2022-08-16T02:57:38;21.20;;;19.30;;
5040;SDS011;2539;52.568;13.364;2022-08-16T03:00:06;20.63;;;18.60;;
5040;SDS011;2539;52.568;13.364;2022-08-16T03:02:35;20.85;;;18.95;;
5040;SDS011;2539;52.568;13.364;2022-08-16T03:05:02;22.10;;;19.90;;
5040;SDS011;2539;52.568;13.364;2022-08-16T03:07:29;20.80;;;19.00;;
5040;SDS011;2539;52.568;13.364;2022-08-16T03:09:55;21.43;;;19.40;;
5040;SDS011;2539;52.568;13.364;2022-08-16T03:12:22;21.00;;;18.97;;
5040;SDS011;2539;52.568;13.364;2022-08-16T03:14:48;23.43;;;20.67;;
5040;SDS011;2539;52.568;13.364;2022-08-16T03:17:14;22.23;;;20.30;;
5040;SDS011;2539;52.568;13.364;2022-08-16T03:19:41;21.50;;;19.40;;
5040;SDS011;2539;52.568;13.364;2022-08-16T03:22:08;21.33;;;19.33;;
5040;SDS011;2539;52.568;13.364;2022-08-16T03:24:34;22.43;;;20.33;;
5040;SDS011;2539;52.568;13.364;2022-08-16T03:27:00;21.47;;;19.40;;
5040;SDS011;2539;52.568;13.364;2022-08-16T03:29:28;23.63;;;21.47;;
5040;SDS011;2539;52.568;13.364;2022-08-16T03:31:59;22.97;;;21.00;;
5040;SDS011;2539;52.568;13.364;2022-08-16T03:34:26;21.63;;;19.70;;
5040;SDS011;2539;52.568;13.364;2022-08-16T03:36:53;21.27;;;19.27;;
5040;SDS011;2539;52.568;13.364;2022-08-16T03:39:20;22.17;;;19.83;;
5040;SDS011;2539;52.568;13.364;2022-08-16T03:41:47;24.17;;;21.97;;
5040;SDS011;2539;52.568;13.364;2022-08-16T03:44:13;23.47;;;21.37;;
5040;SDS011;2539;52.568;13.364;2022-08-16T03:46:41;26.20;;;20.23;;
5040;SDS011;2539;52.568;13.364;2022-08-16T03:49:08;23.30;;;21.20;;
5040;SDS011;2539;52.568;13.364;2022-08-16T03:51:35;21.63;;;19.60;;
5040;SDS011;2539;52.568;13.364;2022-08-16T03:54:01;21.88;;;19.67;;
5040;SDS011;2539;52.568;13.364;2022-08-16T03:56:28;23.33;;;21.00;;
5040;SDS011;2539;52.568;13.364;2022-08-16T03:58:54;22.10;;;20.00;;
5040;SDS011;2539;52.568;13.364;2022-08-16T04:01:21;24.83;;;22.27;;
5040;SDS011;2539;52.568;13.364;2022-08-16T04:03:48;23.40;;;21.33;;
5040;SDS011;2539;52.568;13.364;2022-08-16T04:06:16;23.43;;;21.07;;
5040;SDS011;2539;52.568;13.364;2022-08-16T04:08:42;24.50;;;22.10;;
5040;SDS011;2539;52.568;13.364;2022-08-16T04:11:08;23.25;;;21.15;;
5040;SDS011;2539;52.568;13.364;2022-08-16T04:13:34;23.53;;;21.37;;
5040;SDS011;2539;52.568;13.364;2022-08-16T04:16:00;22.48;;;20.38;;
5040;SDS011;2539;52.568;13.364;2022-08-16T04:18:28;22.70;;;20.57;;
5040;SDS011;2539;52.568;13.364;2022-08-16T04:20:55;22.70;;;20.13;;
5040;SDS011;2539;52.568;13.364;2022-08-16T04:23:21;22.15;;;20.15;;
5040;SDS011;2539;52.568;13.364;2022-08-16T04:25:48;23.57;;;21.27;;
5040;SDS011;2539;52.568;13.364;2022-08-16T04:28:15;22.10;;;19.77;;
5040;SDS011;2539;52.568;13.364;2022-08-16T04:30:42;22.80;;;20.70;;
5040;SDS011;2539;52.568;13.364;2022-08-16T04:33:08;22.90;;;20.70;;
5040;SDS011;2539;52.568;13.364;2022-08-16T04:35:34;22.38;;;20.38;;
5040;SDS011;2539;52.568;13.364;2022-08-16T04:38:01;21.25;;;19.30;;
5040;SDS011;2539;52.568;13.364;2022-08-16T04:40:28;23.10;;;20.80;;
5040;SDS011;2539;52.568;13.364;2022-08-16T04:42:54;24.27;;;20.15;;
5040;SDS011;2539;52.568;13.364;2022-08-16T04:45:20;21.50;;;19.50;;
5040;SDS011;2539;52.568;13.364;2022-08-16T04:47:47;22.53;;;20.40;;
5040;SDS011;2539;52.568;13.364;2022-08-16T04:50:14;22.40;;;20.00;;
5040;SDS011;2539;52.568;13.364;2022-08-16T04:52:45;22.90;;;20.57;;
5040;SDS011;2539;52.568;13.364;2022-08-16T04:55:15;23.60;;;21.02;;
5040;SDS011;2539;52.568;13.364;2022-08-16T04:57:47;23.03;;;20.67;;
5040;SDS011;2539;52.568;13.364;2022-08-16T05:00:19;22.90;;;20.80;;
5040;SDS011;2539;52.568;13.364;2022-08-16T05:02:48;22.33;;;20.00;;
5040;SDS011;2539;52.568;13.364;2022-08-16T05:05:16;22.07;;;19.77;;
5040;SDS011;2539;52.568;13.364;2022-08-16T05:07:43;21.40;;;19.20;;
5040;SDS011;2539;52.568;13.364;2022-08-16T05:10:10;23.90;;;21.48;;
5040;SDS011;2539;52.568;13.364;2022-08-16T05:12:36;21.93;;;19.83;;
5040;SDS011;2539;52.568;13.364;2022-08-16T05:15:03;22.70;;;20.30;;
5040;SDS011;2539;52.568;13.364;2022-08-16T05:17:30;20.52;;;18.63;;
5040;SDS011;2539;52.568;13.364;2022-08-16T05:19:57;28.40;;;20.53;;
5040;SDS011;2539;52.568;13.364;2022-08-16T05:22:23;23.73;;;21.30;;
5040;SDS011;2539;52.568;13.364;2022-08-16T05:24:50;23.23;;;20.77;;
5040;SDS011;2539;52.568;13.364;2022-08-16T05:27:16;25.77;;;20.13;;
5040;SDS011;2539;52.568;13.364;2022-08-16T05:29:43;22.97;;;20.73;;
5040;SDS011;2539;52.568;13.364;2022-08-16T05:32:09;23.10;;;20.80;;
5040;SDS011;2539;52.568;13.364;2022-08-16T05:34:35;21.77;;;19.85;;
5040;SDS011;2539;52.568;13.364;2022-08-16T05:37:01;23.63;;;19.52;;
5040;SDS011;2539;52.568;13.364;2022-08-16T05:39:27;21.50;;;19.08;;
5040;SDS011;2539;52.568;13.364;2022-08-16T05:41:54;20.80;;;18.70;;
5040;SDS011;2539;52.568;13.364;2022-08-16T05:44:20;20.03;;;18.23;;
5040;SDS011;2539;52.568;13.364;2022-08-16T05:46:49;20.33;;;18.23;;
5040;SDS011;2539;52.568;13.364;2022-08-16T05:49:16;24.17;;;20.90;;
5040;SDS011;2539;52.568;13.364;2022-08-16T05:51:42;20.42;;;18.60;;
5040;SDS011;2539;52.568;13.364;2022-08-16T05:54:10;19.00;;;17.10;;
5040;SDS011;2539;52.568;13.364;2022-08-16T05:56:38;18.90;;;17.20;;
5040;SDS011;2539;52.568;13.364;2022-08-16T05:59:05;20.13;;;18.13;;
5040;SDS011;2539;52.568;13.364;2022-08-16T06:01:33;20.43;;;18.63;;
5040;SDS011;2539;52.568;13.364;2022-08-16T06:03:59;19.87;;;17.83;;
5040;SDS011;2539;52.568;13.364;2022-08-16T06:06:26;19.37;;;17.57;;
5040;SDS011;2539;52.568;13.364;2022-08-16T06:08:52;21.47;;;19.40;;
5040;SDS011;2539;52.568;13.364;2022-08-16T06:11:18;19.70;;;17.70;;
5040;SDS011;2539;52.568;13.364;2022-08-16T06:13:44;20.17;;;18.17;;
5040;SDS011;2539;52.568;13.364;2022-08-16T06:16:11;20.60;;;18.73;;
5040;SDS011;2539;52.568;13.364;2022-08-16T06:18:37;19.60;;;17.43;;
5040;SDS011;2539;52.568;13.364;2022-08-16T06:21:03;19.27;;;17.27;;
5040;SDS011;2539;52.568;13.364;2022-08-16T06:23:28;18.50;;;16.80;;
5040;SDS011;2539;52.568;13.364;2022-08-16T06:25:56;19.97;;;17.87;;
5040;SDS011;2539;52.568;13.364;2022-08-16T06:28:22;18.40;;;16.50;;
5040;SDS011;2539;52.568;13.364;2022-08-16T06:30:48;18.87;;;16.90;;
5040;SDS011;2539;52.568;13.364;2022-08-16T06:33:15;19.03;;;17.20;;
5040;SDS011;2539;52.568;13.364;2022-08-16T06:35:42;19.10;;;17.10;;
5040;SDS011;2539;52.568;13.364;2022-08-16T06:38:08;19.13;;;17.17;;
5040;SDS011;2539;52.568;13.364;2022-08-16T06:40:35;17.53;;;15.63;;
5040;SDS011;2539;52.568;13.364;2022-08-16T06:43:01;18.37;;;16.63;;
5040;SDS011;2539;52.568;13.364;2022-08-16T06:45:27;22.63;;;15.70;;
5040;SDS011;2539;52.568;13.364;2022-08-16T06:47:53;15.33;;;13.30;;
5040;SDS011;2539;52.568;13.364;2022-08-16T06:50:19;17.57;;;15.50;;
5040;SDS011;2539;52.568;13.364;2022-08-16T06:52:46;23.00;;;15.83;;
5040;SDS011;2539;52.568;13.364;2022-08-16T06:55:13;16.47;;;14.77;;
5040;SDS011;2539;52.568;13.364;2022-08-16T06:57:41;15.77;;;14.03;;
5040;SDS011;2539;52.568;13.364;2022-08-16T07:00:08;15.00;;;13.50;;
5040;SDS011;2539;52.568;13.364;2022-08-16T07:02:38;34.33;;;16.13;;
5040;SDS011;2539;52.568;13.364;2022-08-16T07:05:06;21.33;;;14.33;;
5040;SDS011;2539;52.568;13.364;2022-08-16T07:07:33;17.93;;;14.80;;
5040;SDS011;2539;52.568;13.364;2022-08-16T07:10:01;15.30;;;13.87;;
5040;SDS011;2539;52.568;13.364;2022-08-16T07:12:29;15.37;;;14.07;;
5040;SDS011;2539;52.568;13.364;2022-08-16T07:14:56;15.63;;;14.20;;
5040;SDS011;2539;52.568;13.364;2022-08-16T07:17:22;16.10;;;14.63;;
5040;SDS011;2539;52.568;13.364;2022-08-16T07:19:49;21.73;;;15.90;;
5040;SDS011;2539;52.568;13.364;2022-08-16T07:22:16;17.90;;;14.53;;
5040;SDS011;2539;52.568;13.364;2022-08-16T07:24:42;15.83;;;13.60;;
5040;SDS011;2539;52.568;13.364;2022-08-16T07:27:12;17.57;;;14.37;;
5040;SDS011;2539;52.568;13.364;2022-08-16T07:29:38;15.87;;;14.30;;
5040;SDS011;2539;52.568;13.364;2022-08-16T07:32:04;16.20;;;14.80;;
5040;SDS011;2539;52.568;13.364;2022-08-16T07:34:31;15.70;;;14.10;;
5040;SDS011;2539;52.568;13.364;2022-08-16T07:37:03;14.17;;;12.60;;
5040;SDS011;2539;52.568;13.364;2022-08-16T07:39:33;15.43;;;13.80;;
5040;SDS011;2539;52.568;13.364;2022-08-16T07:41:59;14.10;;;12.80;;
5040;SDS011;2539;52.568;13.364;2022-08-16T07:44:26;15.13;;;13.33;;
5040;SDS011;2539;52.568;13.364;2022-08-16T07:46:52;19.00;;;14.67;;
5040;SDS011;2539;52.568;13.364;2022-08-16T07:49:20;14.60;;;13.20;;
5040;SDS011;2539;52.568;13.364;2022-08-16T07:51:46;14.90;;;13.53;;
5040;SDS011;2539;52.568;13.364;2022-08-16T07:54:12;14.20;;;11.77;;
5040;SDS011;2539;52.568;13.364;2022-08-16T07:56:38;14.70;;;13.20;;
5040;SDS011;2539;52.568;13.364;2022-08-16T07:59:05;13.88;;;12.45;;
5040;SDS011;2539;52.568;13.364;2022-08-16T08:01:31;13.93;;;12.60;;
5040;SDS011;2539;52.568;13.364;2022-08-16T08:03:58;15.03;;;13.20;;
5040;SDS011;2539;52.568;13.364;2022-08-16T08:06:25;14.97;;;13.40;;
5040;SDS011;2539;52.568;13.364;2022-08-16T08:08:53;14.20;;;12.80;;
5040;SDS011;2539;52.568;13.364;2022-08-16T08:11:20;14.53;;;13.13;;
5040;SDS011;2539;52.568;13.364;2022-08-16T08:13:48;13.37;;;12.00;;
5040;SDS011;2539;52.568;13.364;2022-08-16T08:16:17;16.50;;;12.98;;
5040;SDS011;2539;52.568;13.364;2022-08-16T08:18:46;16.50;;;13.50;;
5040;SDS011;2539;52.568;13.364;2022-08-16T08:21:13;28.20;;;25.10;;
5040;SDS011;2539;52.568;13.364;2022-08-16T08:23:39;14.90;;;13.57;;
5040;SDS011;2539;52.568;13.364;2022-08-16T08:26:06;14.30;;;13.03;;
5040;SDS011;2539;52.568;13.364;2022-08-16T08:28:32;12.68;;;11.45;;
5040;SDS011;2539;52.568;13.364;2022-08-16T08:30:58;13.98;;;12.57;;
5040;SDS011;2539;52.568;13.364;2022-08-16T08:33:25;14.85;;;13.45;;
5040;SDS011;2539;52.568;13.364;2022-08-16T08:35:55;12.85;;;11.75;;
5040;SDS011;2539;52.568;13.364;2022-08-16T08:38:26;15.27;;;12.67;;
5040;SDS011;2539;52.568;13.364;2022-08-16T08:40:54;13.75;;;12.45;;
5040;SDS011;2539;52.568;13.364;2022-08-16T08:43:20;15.07;;;12.48;;
5040;SDS011;2539;52.568;13.364;2022-08-16T08:45:46;13.83;;;11.30;;
5040;SDS011;2539;52.568;13.364;2022-08-16T08:48:13;40.63;;;12.95;;
5040;SDS011;2539;52.568;13.364;2022-08-16T08:50:40;14.18;;;10.98;;
5040;SDS011;2539;52.568;13.364;2022-08-16T08:53:07;12.88;;;10.68;;
5040;SDS011;2539;52.568;13.364;2022-08-16T08:55:33;12.32;;;10.75;;
5040;SDS011;2539;52.568;13.364;2022-08-16T08:57:59;11.93;;;10.73;;
5040;SDS011;2539;52.568;13.364;2022-08-16T09:00:26;11.60;;;10.50;;
5040;SDS011;2539;52.568;13.364;2022-08-16T09:02:54;12.68;;;10.30;;
5040;SDS011;2539;52.568;13.364;2022-08-16T09:05:22;12.98;;;11.70;;
5040;SDS011;2539;52.568;13.364;2022-08-16T09:07:52;13.57;;;10.52;;
5040;SDS011;2539;52.568;13.364;2022-08-16T09:10:19;13.20;;;10.50;;
5040;SDS011;2539;52.568;13.364;2022-08-16T09:12:45;15.93;;;11.23;;
5040;SDS011;2539;52.568;13.364;2022-08-16T09:15:13;13.63;;;11.77;;
5040;SDS011;2539;52.568;13.364;2022-08-16T09:17:40;10.43;;;9.48;;
5040;SDS011;2539;52.568;13.364;2022-08-16T09:20:08;10.82;;;9.77;;
5040;SDS011;2539;52.568;13.364;2022-08-16T09:22:38;19.65;;;10.68;;
5040;SDS011;2539;52.568;13.364;2022-08-16T09:25:04;12.32;;;11.13;;
5040;SDS011;2539;52.568;13.364;2022-08-16T09:27:31;10.85;;;9.80;;
5040;SDS011;2539;52.568;13.364;2022-08-16T09:29:57;11.68;;;10.52;;
5040;SDS011;2539;52.568;13.364;2022-08-16T09:32:24;13.05;;;11.95;;
5040;SDS011;2539;52.568;13.364;2022-08-16T09:34:50;11.75;;;10.65;;
5040;SDS011;2539;52.568;13.364;2022-08-16T09:37:16;11.98;;;10.50;;
5040;SDS011;2539;52.568;13.364;2022-08-16T09:39:42;15.55;;;9.50;;
5040;SDS011;2539;52.568;13.364;2022-08-16T09:42:09;12.25;;;8.30;;
5040;SDS011;2539;52.568;13.364;2022-08-16T09:44:36;10.93;;;8.93;;
5040;SDS011;2539;52.568;13.364;2022-08-16T09:47:02;11.85;;;8.05;;
5040;SDS011;2539;52.568;13.364;2022-08-16T09:49:28;12.40;;;8.75;;
5040;SDS011;2539;52.568;13.364;2022-08-16T09:51:55;10.27;;;9.25;;
5040;SDS011;2539;52.568;13.364;2022-08-16T09:54:21;9.23;;;8.23;;
5040;SDS011;2539;52.568;13.364;2022-08-16T09:56:49;10.70;;;9.40;;
5040;SDS011;2539;52.568;13.364;2022-08-16T09:59:16;11.30;;;10.15;;
5040;SDS011;2539;52.568;13.364;2022-08-16T10:01:43;16.52;;;11.90;;
5040;SDS011;2539;52.568;13.364;2022-08-16T10:04:10;18.08;;;16.17;;
5040;SDS011;2539;52.568;13.364;2022-08-16T10:06:36;12.25;;;8.48;;
5040;SDS011;2539;52.568;13.364;2022-08-16T10:09:03;8.95;;;8.05;;
5040;SDS011;2539;52.568;13.364;2022-08-16T10:11:31;10.00;;;8.82;;
5040;SDS011;2539;52.568;13.364;2022-08-16T10:14:15;9.30;;;7.78;;
5040;SDS011;2539;52.568;13.364;2022-08-16T10:16:42;10.77;;;9.77;;
5040;SDS011;2539;52.568;13.364;2022-08-16T10:19:11;11.90;;;8.90;;
5040;SDS011;2539;52.568;13.364;2022-08-16T10:21:38;11.38;;;8.25;;
5040;SDS011;2539;52.568;13.364;2022-08-16T10:24:05;13.82;;;8.50;;
5040;SDS011;2539;52.568;13.364;2022-08-16T10:26:32;12.57;;;7.53;;
5040;SDS011;2539;52.568;13.364;2022-08-16T10:28:59;8.23;;;7.40;;
5040;SDS011;2539;52.568;13.364;2022-08-16T10:31:26;9.23;;;8.43;;
5040;SDS011;2539;52.568;13.364;2022-08-16T10:33:53;9.25;;;8.18;;
5040;SDS011;2539;52.568;13.364;2022-08-16T10:36:20;11.95;;;7.05;;
5040;SDS011;2539;52.568;13.364;2022-08-16T10:38:46;7.70;;;7.10;;
5040;SDS011;2539;52.568;13.364;2022-08-16T10:41:12;13.30;;;7.60;;
5040;SDS011;2539;52.568;13.364;2022-08-16T10:43:39;10.60;;;7.70;;
5040;SDS011;2539;52.568;13.364;2022-08-16T10:46:08;12.00;;;8.98;;
5040;SDS011;2539;52.568;13.364;2022-08-16T10:48:37;8.23;;;7.50;;
5040;SDS011;2539;52.568;13.364;2022-08-16T10:51:05;8.98;;;7.20;;
5040;SDS011;2539;52.568;13.364;2022-08-16T10:53:32;9.43;;;8.20;;
5040;SDS011;2539;52.568;13.364;2022-08-16T10:56:00;9.88;;;7.60;;
5040;SDS011;2539;52.568;13.364;2022-08-16T10:58:28;8.63;;;7.82;;
5040;SDS011;2539;52.568;13.364;2022-08-16T11:00:55;11.18;;;8.13;;
5040;SDS011;2539;52.568;13.364;2022-08-16T11:03:21;13.40;;;7.82;;
5040;SDS011;2539;52.568;13.364;2022-08-16T11:05:47;7.38;;;6.63;;
5040;SDS011;2539;52.568;13.364;2022-08-16T11:08:13;7.18;;;6.53;;
5040;SDS011;2539;52.568;13.364;2022-08-16T11:10:41;12.80;;;7.22;;
5040;SDS011;2539;52.568;13.364;2022-08-16T11:13:09;8.43;;;6.05;;
5040;SDS011;2539;52.568;13.364;2022-08-16T11:15:37;10.43;;;6.88;;
5040;SDS011;2539;52.568;13.364;2022-08-16T11:18:04;6.43;;;5.72;;
5040;SDS011;2539;52.568;13.364;2022-08-16T11:20:32;6.82;;;6.13;;
5040;SDS011;2539;52.568;13.364;2022-08-16T11:22:58;11.57;;;10.48;;
5040;SDS011;2539;52.568;13.364;2022-08-16T11:25:26;7.30;;;6.65;;
5040;SDS011;2539;52.568;13.364;2022-08-16T11:27:54;7.00;;;6.30;;
5040;SDS011;2539;52.568;13.364;2022-08-16T11:30:21;9.43;;;6.00;;
5040;SDS011;2539;52.568;13.364;2022-08-16T11:32:47;20.95;;;9.02;;
5040;SDS011;2539;52.568;13.364;2022-08-16T11:35:16;9.80;;;7.63;;
5040;SDS011;2539;52.568;13.364;2022-08-16T11:37:52;7.25;;;6.55;;
5040;SDS011;2539;52.568;13.364;2022-08-16T11:40:24;6.78;;;6.07;;
5040;SDS011;2539;52.568;13.364;2022-08-16T11:42:52;7.78;;;6.53;;
5040;SDS011;2539;52.568;13.364;2022-08-16T11:45:19;11.55;;;7.47;;
5040;SDS011;2539;52.568;13.364;2022-08-16T11:47:45;14.52;;;7.38;;
5040;SDS011;2539;52.568;13.364;2022-08-16T11:50:12;9.70;;;6.88;;
5040;SDS011;2539;52.568;13.364;2022-08-16T11:52:38;7.90;;;7.10;;
5040;SDS011;2539;52.568;13.364;2022-08-16T11:55:06;12.65;;;8.50;;
5040;SDS011;2539;52.568;13.364;2022-08-16T11:57:34;7.13;;;6.53;;
5040;SDS011;2539;52.568;13.364;2022-08-16T12:00:00;7.75;;;6.90;;
5040;SDS011;2539;52.568;13.364;2022-08-16T12:02:29;7.63;;;6.22;;
5040;SDS011;2539;52.568;13.364;2022-08-16T12:04:55;8.32;;;6.20;;
5040;SDS011;2539;52.568;13.364;2022-08-16T12:07:22;16.25;;;6.65;;
5040;SDS011;2539;52.568;13.364;2022-08-16T12:09:48;8.30;;;6.70;;
5040;SDS011;2539;52.568;13.364;2022-08-16T12:12:14;9.02;;;7.40;;
5040;SDS011;2539;52.568;13.364;2022-08-16T12:14:40;12.68;;;6.85;;
5040;SDS011;2539;52.568;13.364;2022-08-16T12:17:07;10.88;;;7.60;;
5040;SDS011;2539;52.568;13.364;2022-08-16T12:19:34;7.90;;;7.22;;
5040;SDS011;2539;52.568;13.364;2022-08-16T12:22:00;10.10;;;7.22;;
5040;SDS011;2539;52.568;13.364;2022-08-16T12:24:27;14.63;;;7.88;;
5040;SDS011;2539;52.568;13.364;2022-08-16T12:26:53;9.68;;;7.18;;
5040;SDS011;2539;52.568;13.364;2022-08-16T12:29:19;8.60;;;7.30;;
5040;SDS011;2539;52.568;13.364;2022-08-16T12:31:46;8.50;;;6.82;;
5040;SDS011;2539;52.568;13.364;2022-08-16T12:34:14;6.95;;;6.35;;
5040;SDS011;2539;52.568;13.364;2022-08-16T12:36:42;13.00;;;8.85;;
5040;SDS011;2539;52.568;13.364;2022-08-16T12:39:11;9.73;;;7.13;;
5040;SDS011;2539;52.568;13.364;2022-08-16T12:41:38;9.30;;;7.57;;
5040;SDS011;2539;52.568;13.364;2022-08-16T12:44:05;9.75;;;8.15;;
5040;SDS011;2539;52.568;13.364;2022-08-16T12:46:31;12.63;;;8.27;;
5040;SDS011;2539;52.568;13.364;2022-08-16T12:48:59;8.30;;;7.50;;
5040;SDS011;2539;52.568;13.364;2022-08-16T12:51:30;10.13;;;6.68;;
5040;SDS011;2539;52.568;13.364;2022-08-16T12:54:00;14.73;;;7.18;;
5040;SDS011;2539;52.568;13.364;2022-08-16T12:56:30;9.82;;;6.20;;
5040;SDS011;2539;52.568;13.364;2022-08-16T12:58:58;9.25;;;6.15;;
5040;SDS011;2539;52.568;13.364;2022-08-16T13:01:28;12.93;;;6.18;;
5040;SDS011;2539;52.568;13.364;2022-08-16T13:03:56;12.43;;;6.43;;
5040;SDS011;2539;52.568;13.364;2022-08-16T13:06:24;10.63;;;6.72;;
5040;SDS011;2539;52.568;13.364;2022-08-16T13:08:51;10.23;;;9.23;;
5040;SDS011;2539;52.568;13.364;2022-08-16T13:11:20;8.82;;;6.32;;
5040;SDS011;2539;52.568;13.364;2022-08-16T13:13:54;8.30;;;7.18;;
5040;SDS011;2539;52.568;13.364;2022-08-16T13:16:20;12.80;;;7.95;;
5040;SDS011;2539;52.568;13.364;2022-08-16T13:18:47;6.88;;;6.18;;
5040;SDS011;2539;52.568;13.364;2022-08-16T13:21:13;6.32;;;5.72;;
5040;SDS011;2539;52.568;13.364;2022-08-16T13:23:39;6.45;;;5.78;;
5040;SDS011;2539;52.568;13.364;2022-08-16T13:26:06;8.73;;;5.93;;
5040;SDS011;2539;52.568;13.364;2022-08-16T13:28:32;6.82;;;5.05;;
5040;SDS011;2539;52.568;13.364;2022-08-16T13:30:59;7.22;;;5.85;;
5040;SDS011;2539;52.568;13.364;2022-08-16T13:33:27;7.10;;;5.65;;
5040;SDS011;2539;52.568;13.364;2022-08-16T13:35:57;7.07;;;5.70;;
5040;SDS011;2539;52.568;13.364;2022-08-16T13:38:25;7.28;;;5.15;;
5040;SDS011;2539;52.568;13.364;2022-08-16T13:40:52;7.20;;;5.22;;
5040;SDS011;2539;52.568;13.364;2022-08-16T13:43:20;6.10;;;5.10;;
5040;SDS011;2539;52.568;13.364;2022-08-16T13:45:48;5.85;;;4.95;;
5040;SDS011;2539;52.568;13.364;2022-08-16T13:48:14;6.53;;;5.85;;
5040;SDS011;2539;52.568;13.364;2022-08-16T13:50:40;9.13;;;5.55;;
5040;SDS011;2539;52.568;13.364;2022-08-16T13:53:08;6.80;;;5.78;;
5040;SDS011;2539;52.568;13.364;2022-08-16T13:55:35;6.40;;;5.60;;
5040;SDS011;2539;52.568;13.364;2022-08-16T13:58:01;8.40;;;6.13;;
5040;SDS011;2539;52.568;13.364;2022-08-16T14:00:28;7.20;;;6.40;;
5040;SDS011;2539;52.568;13.364;2022-08-16T14:02:54;5.57;;;5.05;;
5040;SDS011;2539;52.568;13.364;2022-08-16T14:05:21;6.88;;;5.43;;
5040;SDS011;2539;52.568;13.364;2022-08-16T14:07:47;6.63;;;4.70;;
5040;SDS011;2539;52.568;13.364;2022-08-16T14:10:13;8.57;;;5.63;;
5040;SDS011;2539;52.568;13.364;2022-08-16T14:12:40;9.52;;;4.75;;
5040;SDS011;2539;52.568;13.364;2022-08-16T14:15:08;5.40;;;4.90;;
5040;SDS011;2539;52.568;13.364;2022-08-16T14:17:37;5.88;;;4.82;;
5040;SDS011;2539;52.568;13.364;2022-08-16T14:20:03;6.50;;;4.90;;
5040;SDS011;2539;52.568;13.364;2022-08-16T14:22:31;5.82;;;5.20;;
5040;SDS011;2539;52.568;13.364;2022-08-16T14:24:59;5.93;;;5.30;;
5040;SDS011;2539;52.568;13.364;2022-08-16T14:27:27;5.72;;;5.22;;
5040;SDS011;2539;52.568;13.364;2022-08-16T14:29:54;4.78;;;4.25;;
5040;SDS011;2539;52.568;13.364;2022-08-16T14:32:23;10.50;;;5.82;;
5040;SDS011;2539;52.568;13.364;2022-08-16T14:34:52;5.80;;;5.30;;
5040;SDS011;2539;52.568;13.364;2022-08-16T14:37:19;9.55;;;4.85;;
5040;SDS011;2539;52.568;13.364;2022-08-16T14:39:46;6.90;;;5.75;;
5040;SDS011;2539;52.568;13.364;2022-08-16T14:42:15;5.38;;;4.93;;
5040;SDS011;2539;52.568;13.364;2022-08-16T14:44:43;5.60;;;4.82;;
5040;SDS011;2539;52.568;13.364;2022-08-16T14:47:10;6.35;;;3.75;;